Hollywood Park, Texas
Current Conditions -  °F | °C
As of 12:51 PM on Sunday 23 Nov 2014 (Local Time) from KSAT Reporting Station
Clear Clear  
Wind Chill: 79°   Ceiling: Unl
Heat Index: 79°   Visibility: 10mi
Dew Point: 45°   Wind: 16mph
Humidity: 30%   Direction: 240°WSW
Pressure: 29.62"   Gusts: 24mph
Location:  29.5876°N, 98.474°W
Report Text: KSAT 231851Z 24014G21KT 10SM CLR 26/07 A2962 RMK AO2 SLP014 T02610072
Loading
Personal Weather Stations






























Interactive Weather Map New forecast layout! Learn more

10-Day Weather Forecast

Advertisements
Track Severe Weather on mobile